NCAR-RAP Real-Time Weather Data

Output produced by METARs form (23 February 2020  02:28 UTC)
found at http://weather.rap.ucar.edu/surface/
 
KCLE 230151Z 21008KT 10SM CLR 03/M08 A3022 RMK AO2 SLP243 T00331083
KCLE 230051Z 21006KT 10SM CLR 04/M09 A3023 RMK AO2 SLP246 T00441089
KCLE 222351Z 21007KT 10SM CLR 06/M09 A3023 RMK AO2 SLP245 T00561089 10100 20056 55001
KCLE 222251Z 22012KT 10SM CLR 07/M09 A3023 RMK AO2 SLP242 T00721094
KCLE 222151Z 22016KT 10SM CLR 08/M09 A3023 RMK AO2 SLP244 T00831094
KCLE 222051Z 22013G22KT 10SM CLR 09/M09 A3023 RMK AO2 SLP244 T00891089 56016
KCLE 221951Z 24019G24KT 10SM CLR 09/M08 A3024 RMK AO2 SLP245 T00891083
KCLE 221851Z 23013G22KT 10SM CLR 08/M09 A3025 RMK AO2 SLP249 T00831089
KCLE 221751Z 24016G20KT 10SM CLR 08/M09 A3028 RMK AO2 SLP260 T00781089 10078 21028 58017
KCLE 221651Z 21013KT 10SM CLR 06/M09 A3030 RMK AO2 SLP269 T00561094
KCLE 221551Z 22010KT 10SM CLR 04/M11 A3032 RMK AO2 SLP275 T00391106
KCLE 221451Z 24016KT 10SM CLR 02/M11 A3033 RMK AO2 SLP279 T00221111 58003
KCLE 221351Z 22009KT 10SM CLR 00/M11 A3034 RMK AO2 SLP285 T00001111
KCLE 221251Z 23010KT 10SM CLR M02/M12 A3034 RMK AO2 SLP283 T10221117
KCLE 221151Z 21008KT 10SM CLR M03/M12 A3034 RMK AO2 SLP284 T10281117 11017 21028 58000
KCLE 221051Z 23009KT 10SM CLR M03/M12 A3035 RMK AO2 SLP286 T10281117
KCLE 220951Z 23010KT 10SM CLR M02/M12 A3034 RMK AO2 SLP285 T10221117
KCLE 220851Z 23008KT 10SM CLR M02/M12 A3034 RMK AO2 SLP284 T10221122 58001
KCLE 220751Z 22005KT 10SM CLR M03/M12 A3035 RMK AO2 SLP286 T10281117
KCLE 220651Z 21010KT 10SM CLR M02/M11 A3035 RMK AO2 SLP285 T10221111
KCLE 220551Z 20010KT 10SM CLR M02/M11 A3035 RMK AO2 SLP285 T10171106 10000 21022 56017
KCLE 220451Z 20011KT 10SM CLR M02/M11 A3035 RMK AO2 SLP289 T10171106 400221094
KCLE 220351Z 21010KT 10SM CLR M01/M10 A3038 RMK AO2 SLP297 T10111100
KCLE 220251Z 21011KT 10SM CLR M01/M10 A3040 RMK AO2 SLP303 T10061100 58010
KCLE 220151Z 20009KT 10SM CLR M01/M10 A3041 RMK AO2 SLP309 T10061100
KCLE 220051Z 21010KT 10SM CLR M01/M10 A3043 RMK AO2 SLP317 T10061100
KCLE 212351Z 21008KT 10SM CLR 00/M10 A3043 RMK AO2 SLP315 T00001100 10022 21006 56018
KCLE 212251Z 21012KT 10SM CLR 01/M11 A3044 RMK AO2 SLP319 T00061106
KCLE 212151Z 23011KT 10SM CLR 02/M10 A3046 RMK AO2 SLP325 T00171100
KCLE 212051Z 21012KT 10SM CLR 02/M11 A3048 RMK AO2 SLP333 T00171111 56027
KCLE 211951Z 23013G17KT 10SM CLR 01/M11 A3050 RMK AO2 SLP340 T00111111
KCLE 211851Z 25011KT 10SM CLR 01/M12 A3053 RMK AO2 SLP349 T00111117
KCLE 211751Z 23012KT 10SM CLR 00/M11 A3056 RMK AO2 SLP361 T00001111 10000 21078 58012
KCLE 211651Z 23010KT 10SM CLR M02/M11 A3059 RMK AO2 SLP370 T10171111
KCLE 211551Z 25010KT 10SM FEW021 M03/M11 A3060 RMK AO2 SLP376 T10331106
KCLE 211451Z 24009KT 10SM FEW021 M04/M09 A3060 RMK AO2 SLP376 T10441094 51007
KCLE 211351Z 24009KT 10SM FEW021 M06/M11 A3060 RMK AO2 SLP375 T10611106
KCLE 211251Z 21006KT 10SM SCT021 M08/M12 A3058 RMK AO2 SLP370 T10781117
KCLE 211151Z 24007KT 10SM BKN023 M07/M12 A3058 RMK AO2 SLP368 T10721117 11072 21094 53005
KCLE 211059Z 24006KT 10SM BKN026 M08/M12 A3058 RMK AO2 T10781117
KCLE 211051Z 24006KT 10SM FEW030 M08/M12 A3057 RMK AO2 SLP367 T10781117
KCLE 210951Z 22005KT 10SM FEW035 M09/M12 A3056 RMK AO2 SLP363 T10891122
KCLE 210851Z 21004KT 10SM CLR M09/M13 A3056 RMK AO2 SLP363 T10891128 58008
KCLE 210751Z 22005KT 10SM FEW035 M08/M13 A3058 RMK AO2 SLP367 T10831128
KCLE 210651Z 23005KT 10SM FEW030 SCT035 M08/M13 A3058 RMK AO2 SLP370 T10831128
KCLE 210551Z 24004KT 10SM SCT033 M08/M12 A3059 RMK AO2 SLP372 60000 T10831122 11050 21089 58002
KCLE 210451Z 23004KT 10SM FEW039 M08/M12 A3059 RMK AO2 SLP373 T10831122 410281083
KCLE 210351Z 24005KT 10SM FEW039 M08/M13 A3060 RMK AO2 SLP375 T10831128
KCLE 210251Z 26005KT 10SM FEW039 M08/M13 A3060 RMK AO2 SLP375 60000 T10781128 51006